sensor_id;sensor_type;location;lat;lon;timestamp;pressure;altitude;pressure_sealevel;temperature;humidity
55317;BME280;41178;48.956;8.130;2023-05-20T00:02:53;99934.38;;;14.93;42.45
55317;BME280;41178;48.956;8.130;2023-05-20T00:07:55;99943.88;;;14.23;42.69
55317;BME280;41178;48.956;8.130;2023-05-20T00:13:02;99945.44;;;14.03;43.36
55317;BME280;41178;48.956;8.130;2023-05-20T00:18:04;99938.28;;;14.51;43.36
55317;BME280;41178;48.956;8.130;2023-05-20T00:23:06;99930.19;;;14.71;42.62
55317;BME280;41178;48.956;8.130;2023-05-20T00:28:07;99968.91;;;14.23;43.48
55317;BME280;41178;48.956;8.130;2023-05-20T00:33:09;99947.91;;;14.05;43.59
55317;BME280;41178;48.956;8.130;2023-05-20T00:38:11;99927.59;;;13.82;43.71
55317;BME280;41178;48.956;8.130;2023-05-20T00:43:13;99946.94;;;14.06;43.93
55317;BME280;41178;48.956;8.130;2023-05-20T00:48:14;99941.19;;;13.67;44.48
55317;BME280;41178;48.956;8.130;2023-05-20T00:53:16;99920.13;;;13.78;44.14
55317;BME280;41178;48.956;8.130;2023-05-20T00:58:21;99926.78;;;13.34;45.06
55317;BME280;41178;48.956;8.130;2023-05-20T01:03:23;99893.03;;;15.20;42.77
55317;BME280;41178;48.956;8.130;2023-05-20T01:08:26;99927.25;;;14.06;44.68
55317;BME280;41178;48.956;8.130;2023-05-20T01:13:33;99930.19;;;14.57;43.69
55317;BME280;41178;48.956;8.130;2023-05-20T01:18:38;99914.25;;;13.54;45.16
55317;BME280;41178;48.956;8.130;2023-05-20T01:23:40;99929.88;;;13.79;44.90
55317;BME280;41178;48.956;8.130;2023-05-20T01:28:42;99937.03;;;13.58;45.13
55317;BME280;41178;48.956;8.130;2023-05-20T01:33:46;99921.84;;;13.99;45.08
55317;BME280;41178;48.956;8.130;2023-05-20T01:38:53;99917.78;;;14.56;44.23
55317;BME280;41178;48.956;8.130;2023-05-20T01:43:55;99905.88;;;13.29;45.67
55317;BME280;41178;48.956;8.130;2023-05-20T01:48:57;99903.69;;;14.21;44.57
55317;BME280;41178;48.956;8.130;2023-05-20T01:53:58;99913.31;;;13.82;45.50
55317;BME280;41178;48.956;8.130;2023-05-20T01:59:00;99881.75;;;14.11;45.19
55317;BME280;41178;48.956;8.130;2023-05-20T02:04:02;99911.69;;;13.94;45.42
55317;BME280;41178;48.956;8.130;2023-05-20T02:09:04;99893.94;;;14.93;44.58
55317;BME280;41178;48.956;8.130;2023-05-20T02:14:05;99855.91;;;13.00;47.15
55317;BME280;41178;48.956;8.130;2023-05-20T02:19:07;99888.03;;;13.70;46.40
55317;BME280;41178;48.956;8.130;2023-05-20T02:24:13;99874.75;;;13.48;46.37
55317;BME280;41178;48.956;8.130;2023-05-20T02:29:15;99890.91;;;13.61;47.30
55317;BME280;41178;48.956;8.130;2023-05-20T02:34:17;99791.16;;;12.25;48.04
55317;BME280;41178;48.956;8.130;2023-05-20T02:39:19;99870.19;;;13.07;47.22
55317;BME280;41178;48.956;8.130;2023-05-20T02:44:21;99876.19;;;13.51;46.66
55317;BME280;41178;48.956;8.130;2023-05-20T02:49:22;99876.59;;;13.06;47.50
55317;BME280;41178;48.956;8.130;2023-05-20T02:54:24;99876.72;;;12.91;47.69
55317;BME280;41178;48.956;8.130;2023-05-20T02:59:26;99766.69;;;11.78;49.13
55317;BME280;41178;48.956;8.130;2023-05-20T03:04:28;99865.84;;;13.47;47.33
55317;BME280;41178;48.956;8.130;2023-05-20T03:09:29;99872.03;;;12.71;48.13
55317;BME280;41178;48.956;8.130;2023-05-20T03:14:31;99886.25;;;13.00;47.59
55317;BME280;41178;48.956;8.130;2023-05-20T03:19:33;99766.47;;;11.58;49.09
55317;BME280;41178;48.956;8.130;2023-05-20T03:24:34;99803.78;;;11.59;49.40
55317;BME280;41178;48.956;8.130;2023-05-20T03:29:36;99827.47;;;11.77;48.99
55317;BME280;41178;48.956;8.130;2023-05-20T03:34:38;99870.53;;;11.91;49.34
55317;BME280;41178;48.956;8.130;2023-05-20T03:39:39;99902.38;;;12.44;48.68
55317;BME280;41178;48.956;8.130;2023-05-20T03:44:41;99820.03;;;11.36;49.89
55317;BME280;41178;48.956;8.130;2023-05-20T03:49:43;99907.91;;;12.92;48.27
55317;BME280;41178;48.956;8.130;2023-05-20T03:54:44;99875.47;;;11.72;49.33
55317;BME280;41178;48.956;8.130;2023-05-20T03:59:46;99865.63;;;11.58;49.83
55317;BME280;41178;48.956;8.130;2023-05-20T04:04:48;99889.09;;;11.56;50.11
55317;BME280;41178;48.956;8.130;2023-05-20T04:09:53;99925.13;;;12.05;49.53
55317;BME280;41178;48.956;8.130;2023-05-20T04:15:00;99935.47;;;13.07;48.53
55317;BME280;41178;48.956;8.130;2023-05-20T04:20:03;99924.28;;;12.69;48.56
55317;BME280;41178;48.956;8.130;2023-05-20T04:25:07;99937.75;;;12.47;49.13
55317;BME280;41178;48.956;8.130;2023-05-20T04:30:10;99937.72;;;12.69;49.05
55317;BME280;41178;48.956;8.130;2023-05-20T04:35:13;99961.19;;;13.52;47.80
55317;BME280;41178;48.956;8.130;2023-05-20T04:40:15;99945.56;;;12.27;49.09
55317;BME280;41178;48.956;8.130;2023-05-20T04:45:17;99921.66;;;11.89;49.29
55317;BME280;41178;48.956;8.130;2023-05-20T04:50:19;99951.44;;;12.81;49.09
55317;BME280;41178;48.956;8.130;2023-05-20T04:55:21;99941.28;;;12.11;49.83
55317;BME280;41178;48.956;8.130;2023-05-20T05:00:25;99962.66;;;13.54;48.32
55317;BME280;41178;48.956;8.130;2023-05-20T05:05:27;99926.97;;;12.04;49.63
55317;BME280;41178;48.956;8.130;2023-05-20T05:10:28;99949.81;;;12.86;50.02
55317;BME280;41178;48.956;8.130;2023-05-20T05:15:30;99921.06;;;12.30;49.84
55317;BME280;41178;48.956;8.130;2023-05-20T05:20:32;99928.78;;;12.18;50.65
55317;BME280;41178;48.956;8.130;2023-05-20T05:25:34;99911.88;;;12.46;49.31
55317;BME280;41178;48.956;8.130;2023-05-20T05:30:36;99944.63;;;13.41;48.88
55317;BME280;41178;48.956;8.130;2023-05-20T05:35:37;99921.41;;;12.70;49.74
55317;BME280;41178;48.956;8.130;2023-05-20T05:40:39;99928.50;;;13.48;48.20
55317;BME280;41178;48.956;8.130;2023-05-20T05:45:41;99937.56;;;13.40;49.02
55317;BME280;41178;48.956;8.130;2023-05-20T05:50:44;100008.28;;;14.37;48.50
55317;BME280;41178;48.956;8.130;2023-05-20T05:55:46;99941.16;;;13.61;49.28
55317;BME280;41178;48.956;8.130;2023-05-20T06:00:51;99947.44;;;13.81;48.78
55317;BME280;41178;48.956;8.130;2023-05-20T06:05:53;99981.38;;;14.64;47.50
55317;BME280;41178;48.956;8.130;2023-05-20T06:10:55;99983.03;;;14.78;47.90
55317;BME280;41178;48.956;8.130;2023-05-20T06:15:56;99921.47;;;12.84;50.58
55317;BME280;41178;48.956;8.130;2023-05-20T06:20:58;99954.66;;;14.49;48.52
55317;BME280;41178;48.956;8.130;2023-05-20T06:26:00;99947.50;;;14.01;49.17
55317;BME280;41178;48.956;8.130;2023-05-20T06:31:02;99949.25;;;14.29;49.03
55317;BME280;41178;48.956;8.130;2023-05-20T06:36:04;99930.78;;;14.06;49.48
55317;BME280;41178;48.956;8.130;2023-05-20T06:41:06;99973.31;;;14.84;48.58
55317;BME280;41178;48.956;8.130;2023-05-20T06:46:07;99914.66;;;15.00;47.72
55317;BME280;41178;48.956;8.130;2023-05-20T06:51:09;99862.69;;;12.96;51.14
55317;BME280;41178;48.956;8.130;2023-05-20T06:56:11;99969.50;;;15.45;47.89
55317;BME280;41178;48.956;8.130;2023-05-20T07:01:12;99921.91;;;15.06;48.14
55317;BME280;41178;48.956;8.130;2023-05-20T07:06:17;99890.84;;;14.16;49.23
55317;BME280;41178;48.956;8.130;2023-05-20T07:11:19;99948.72;;;15.59;48.11
55317;BME280;41178;48.956;8.130;2023-05-20T07:16:22;99932.34;;;15.47;48.10
55317;BME280;41178;48.956;8.130;2023-05-20T07:21:23;99893.25;;;15.11;49.11
55317;BME280;41178;48.956;8.130;2023-05-20T07:26:25;99839.31;;;14.26;49.87
55317;BME280;41178;48.956;8.130;2023-05-20T07:31:27;99849.53;;;15.61;48.02
55317;BME280;41178;48.956;8.130;2023-05-20T07:36:29;99904.75;;;16.22;47.77
55317;BME280;41178;48.956;8.130;2023-05-20T07:41:31;99886.16;;;16.65;47.27
55317;BME280;41178;48.956;8.130;2023-05-20T07:46:33;99820.09;;;15.53;49.03
55317;BME280;41178;48.956;8.130;2023-05-20T07:51:35;99858.50;;;17.43;46.39
55317;BME280;41178;48.956;8.130;2023-05-20T07:56:37;99844.72;;;17.63;46.32
55317;BME280;41178;48.956;8.130;2023-05-20T08:01:40;99806.78;;;16.84;47.57
55317;BME280;41178;48.956;8.130;2023-05-20T08:06:42;99785.16;;;16.66;47.77
55317;BME280;41178;48.956;8.130;2023-05-20T08:11:44;99806.72;;;17.40;47.42
55317;BME280;41178;48.956;8.130;2023-05-20T08:16:48;99740.94;;;16.78;47.55
55317;BME280;41178;48.956;8.130;2023-05-20T08:21:52;99783.34;;;17.76;46.71
55317;BME280;41178;48.956;8.130;2023-05-20T08:26:54;99756.41;;;17.81;46.75
55317;BME280;41178;48.956;8.130;2023-05-20T08:31:56;99713.94;;;16.41;48.61
55317;BME280;41178;48.956;8.130;2023-05-20T08:36:58;99718.97;;;17.35;47.95
55317;BME280;41178;48.956;8.130;2023-05-20T08:41:59;99693.78;;;17.77;46.61
55317;BME280;41178;48.956;8.130;2023-05-20T08:47:02;99669.88;;;17.08;47.59
55317;BME280;41178;48.956;8.130;2023-05-20T08:52:05;99649.63;;;16.69;48.22
55317;BME280;41178;48.956;8.130;2023-05-20T08:57:11;99646.25;;;17.93;45.73
55317;BME280;41178;48.956;8.130;2023-05-20T09:02:14;99668.88;;;18.92;45.56
55317;BME280;41178;48.956;8.130;2023-05-20T09:07:28;99657.56;;;17.78;46.77
55317;BME280;41178;48.956;8.130;2023-05-20T09:12:30;99611.53;;;18.54;45.41
55317;BME280;41178;48.956;8.130;2023-05-20T09:17:35;99565.78;;;17.29;47.11
55317;BME280;41178;48.956;8.130;2023-05-20T09:22:38;99623.69;;;18.40;45.84
55317;BME280;41178;48.956;8.130;2023-05-20T09:27:39;99587.78;;;16.12;48.16
55317;BME280;41178;48.956;8.130;2023-05-20T09:32:41;99680.13;;;19.46;44.81
55317;BME280;41178;48.956;8.130;2023-05-20T09:37:45;99625.31;;;18.53;45.76
55317;BME280;41178;48.956;8.130;2023-05-20T09:43:05;99576.09;;;17.09;46.48
55317;BME280;41178;48.956;8.130;2023-05-20T09:48:11;99601.63;;;18.07;46.34
55317;BME280;41178;48.956;8.130;2023-05-20T09:53:14;99641.50;;;19.22;44.96
55317;BME280;41178;48.956;8.130;2023-05-20T09:58:19;99607.88;;;19.74;44.24
55317;BME280;41178;48.956;8.130;2023-05-20T10:03:21;99599.72;;;19.74;44.67
55317;BME280;41178;48.956;8.130;2023-05-20T10:24:11;99563.88;;;20.38;43.70
55317;BME280;41178;48.956;8.130;2023-05-20T10:29:17;99482.56;;;19.04;44.57
55317;BME280;41178;48.956;8.130;2023-05-20T10:34:20;99525.63;;;19.56;44.33
55317;BME280;41178;48.956;8.130;2023-05-20T10:39:27;99493.31;;;19.77;44.35
55317;BME280;41178;48.956;8.130;2023-05-20T10:44:42;99481.88;;;20.19;44.28
55317;BME280;41178;48.956;8.130;2023-05-20T10:49:44;99458.13;;;21.01;42.28
55317;BME280;41178;48.956;8.130;2023-05-20T10:54:55;99446.72;;;18.85;44.68
55317;BME280;41178;48.956;8.130;2023-05-20T10:59:57;99437.41;;;19.76;43.59
55317;BME280;41178;48.956;8.130;2023-05-20T11:06:28;99526.06;;;18.80;46.66
55317;BME280;41178;48.956;8.130;2023-05-20T11:11:30;99552.19;;;18.12;46.84
55317;BME280;41178;48.956;8.130;2023-05-20T11:16:32;99474.63;;;18.06;46.23
55317;BME280;41178;48.956;8.130;2023-05-20T11:21:34;99487.66;;;19.39;44.83
55317;BME280;41178;48.956;8.130;2023-05-20T11:26:42;99463.00;;;17.65;45.51
55317;BME280;41178;48.956;8.130;2023-05-20T11:31:47;99505.56;;;19.18;44.75
55317;BME280;41178;48.956;8.130;2023-05-20T11:36:57;99495.88;;;19.45;44.20
55317;BME280;41178;48.956;8.130;2023-05-20T11:41:59;99496.06;;;18.36;45.35
55317;BME280;41178;48.956;8.130;2023-05-20T11:47:02;99482.78;;;20.25;44.02
55317;BME280;41178;48.956;8.130;2023-05-20T11:52:04;99470.78;;;19.15;44.67
55317;BME280;41178;48.956;8.130;2023-05-20T11:57:10;99469.09;;;19.31;44.27
55317;BME280;41178;48.956;8.130;2023-05-20T12:02:12;99453.13;;;19.52;43.66
55317;BME280;41178;48.956;8.130;2023-05-20T12:07:16;99477.34;;;20.57;43.04
55317;BME280;41178;48.956;8.130;2023-05-20T12:12:18;99441.78;;;19.38;44.17
55317;BME280;41178;48.956;8.130;2023-05-20T12:17:20;99451.72;;;20.48;42.96
55317;BME280;41178;48.956;8.130;2023-05-20T12:22:22;99413.66;;;19.88;43.34
55317;BME280;41178;48.956;8.130;2023-05-20T12:27:24;99385.59;;;19.33;43.26
55317;BME280;41178;48.956;8.130;2023-05-20T12:32:25;99412.53;;;19.84;44.05
55317;BME280;41178;48.956;8.130;2023-05-20T12:37:27;99375.78;;;19.76;43.25
55317;BME280;41178;48.956;8.130;2023-05-20T12:42:29;99377.41;;;20.69;41.70
55317;BME280;41178;48.956;8.130;2023-05-20T12:47:31;99405.78;;;21.32;41.79
55317;BME280;41178;48.956;8.130;2023-05-20T12:52:33;99380.84;;;20.22;42.88
55317;BME280;41178;48.956;8.130;2023-05-20T12:57:35;99347.53;;;19.50;42.87
55317;BME280;41178;48.956;8.130;2023-05-20T13:02:37;99409.09;;;19.94;42.94
55317;BME280;41178;48.956;8.130;2023-05-20T13:07:40;99347.00;;;19.53;42.97
55317;BME280;41178;48.956;8.130;2023-05-20T13:12:42;99358.22;;;20.11;42.84
55317;BME280;41178;48.956;8.130;2023-05-20T13:17:46;99357.34;;;21.29;42.00
55317;BME280;41178;48.956;8.130;2023-05-20T13:22:48;99355.16;;;20.03;42.72
55317;BME280;41178;48.956;8.130;2023-05-20T13:27:50;99304.53;;;19.91;42.78
55317;BME280;41178;48.956;8.130;2023-05-20T13:32:52;99304.66;;;19.74;42.29
55317;BME280;41178;48.956;8.130;2023-05-20T13:37:54;99323.16;;;21.48;41.83
55317;BME280;41178;48.956;8.130;2023-05-20T13:42:55;99312.03;;;20.44;42.64
55317;BME280;41178;48.956;8.130;2023-05-20T13:47:57;99296.81;;;20.10;42.25
55317;BME280;41178;48.956;8.130;2023-05-20T13:52:59;99294.25;;;20.68;42.17
55317;BME280;41178;48.956;8.130;2023-05-20T13:58:01;99280.47;;;20.80;42.11
55317;BME280;41178;48.956;8.130;2023-05-20T14:03:03;99299.81;;;20.94;42.62
55317;BME280;41178;48.956;8.130;2023-05-20T14:08:05;99288.63;;;20.05;42.96
55317;BME280;41178;48.956;8.130;2023-05-20T14:13:07;99270.50;;;21.12;41.77
55317;BME280;41178;48.956;8.130;2023-05-20T14:18:10;99296.28;;;20.89;41.90
55317;BME280;41178;48.956;8.130;2023-05-20T14:23:13;99257.34;;;20.88;41.85
55317;BME280;41178;48.956;8.130;2023-05-20T14:28:14;99260.28;;;21.86;40.76
55317;BME280;41178;48.956;8.130;2023-05-20T14:33:16;99285.44;;;20.51;42.58
55317;BME280;41178;48.956;8.130;2023-05-20T14:38:18;99280.00;;;20.99;41.96
55317;BME280;41178;48.956;8.130;2023-05-20T14:43:21;99221.91;;;21.51;41.87
55317;BME280;41178;48.956;8.130;2023-05-20T14:48:23;99215.25;;;20.96;42.10
55317;BME280;41178;48.956;8.130;2023-05-20T14:53:25;99249.13;;;21.51;41.82
55317;BME280;41178;48.956;8.130;2023-05-20T14:58:26;99262.81;;;20.93;42.59
55317;BME280;41178;48.956;8.130;2023-05-20T15:03:28;99255.31;;;20.63;42.09
55317;BME280;41178;48.956;8.130;2023-05-20T15:08:30;99283.28;;;21.11;41.87
55317;BME280;41178;48.956;8.130;2023-05-20T15:13:32;99246.66;;;21.39;41.64
55317;BME280;41178;48.956;8.130;2023-05-20T15:18:34;99257.81;;;21.48;41.43
55317;BME280;41178;48.956;8.130;2023-05-20T15:23:36;99206.66;;;21.71;41.21
55317;BME280;41178;48.956;8.130;2023-05-20T15:28:39;99219.69;;;21.28;41.34
55317;BME280;41178;48.956;8.130;2023-05-20T15:33:40;99241.66;;;21.00;42.01
55317;BME280;41178;48.956;8.130;2023-05-20T15:38:44;99217.56;;;21.96;40.69
55317;BME280;41178;48.956;8.130;2023-05-20T15:43:46;99272.50;;;21.42;41.74
55317;BME280;41178;48.956;8.130;2023-05-20T15:48:47;99240.16;;;21.71;41.51
55317;BME280;41178;48.956;8.130;2023-05-20T15:53:49;99209.44;;;20.19;41.96
55317;BME280;41178;48.956;8.130;2023-05-20T15:58:51;99235.78;;;21.70;40.90
55317;BME280;41178;48.956;8.130;2023-05-20T16:03:52;99238.00;;;20.21;42.24
55317;BME280;41178;48.956;8.130;2023-05-20T16:08:58;99244.50;;;21.83;41.20
55317;BME280;41178;48.956;8.130;2023-05-20T16:13:59;99232.97;;;20.45;41.83
55317;BME280;41178;48.956;8.130;2023-05-20T16:19:01;99244.88;;;20.92;41.74
55317;BME280;41178;48.956;8.130;2023-05-20T16:24:03;99246.19;;;20.31;42.11
55317;BME280;41178;48.956;8.130;2023-05-20T16:29:05;99226.28;;;20.21;42.13
55317;BME280;41178;48.956;8.130;2023-05-20T16:34:06;99260.78;;;20.68;41.73
55317;BME280;41178;48.956;8.130;2023-05-20T16:39:08;99221.56;;;21.32;41.26
55317;BME280;41178;48.956;8.130;2023-05-20T16:44:10;99204.84;;;19.87;42.01
55317;BME280;41178;48.956;8.130;2023-05-20T16:49:12;99229.50;;;20.60;41.95
55317;BME280;41178;48.956;8.130;2023-05-20T16:54:13;99227.75;;;20.39;42.32
55317;BME280;41178;48.956;8.130;2023-05-20T16:59:15;99227.53;;;19.43;44.46
55317;BME280;41178;48.956;8.130;2023-05-20T17:04:17;99254.84;;;19.58;44.63
55317;BME280;41178;48.956;8.130;2023-05-20T17:09:19;99272.53;;;19.39;45.25
55317;BME280;41178;48.956;8.130;2023-05-20T17:14:20;99300.16;;;19.90;44.95
55317;BME280;41178;48.956;8.130;2023-05-20T17:19:22;99243.13;;;18.59;46.09
55317;BME280;41178;48.956;8.130;2023-05-20T17:24:24;99218.34;;;17.95;46.96
55317;BME280;41178;48.956;8.130;2023-05-20T17:29:26;99304.66;;;18.64;46.83
55317;BME280;41178;48.956;8.130;2023-05-20T17:34:27;99300.38;;;18.46;47.12
55317;BME280;41178;48.956;8.130;2023-05-20T17:39:30;99325.00;;;19.50;45.78
55317;BME280;41178;48.956;8.130;2023-05-20T17:44:31;99301.59;;;18.38;46.96
55317;BME280;41178;48.956;8.130;2023-05-20T17:49:33;99344.53;;;18.30;47.48
55317;BME280;41178;48.956;8.130;2023-05-20T17:54:35;99335.72;;;19.62;46.00
55317;BME280;41178;48.956;8.130;2023-05-20T17:59:36;99369.63;;;18.59;47.68
55317;BME280;41178;48.956;8.130;2023-05-20T18:04:41;99343.94;;;18.27;47.35
55317;BME280;41178;48.956;8.130;2023-05-20T18:09:43;99360.50;;;18.65;47.37
55317;BME280;41178;48.956;8.130;2023-05-20T18:14:45;99326.56;;;17.78;48.11
55317;BME280;41178;48.956;8.130;2023-05-20T18:19:47;99335.81;;;18.10;47.46
55317;BME280;41178;48.956;8.130;2023-05-20T18:24:48;99374.50;;;17.94;48.19
55317;BME280;41178;48.956;8.130;2023-05-20T18:29:50;99343.34;;;17.63;48.26
55317;BME280;41178;48.956;8.130;2023-05-20T18:34:52;99333.44;;;17.97;47.88
55317;BME280;41178;48.956;8.130;2023-05-20T18:39:54;99331.38;;;17.18;49.03
55317;BME280;41178;48.956;8.130;2023-05-20T18:44:58;99347.09;;;17.73;48.16
55317;BME280;41178;48.956;8.130;2023-05-20T18:49:59;99368.88;;;17.26;49.33
55317;BME280;41178;48.956;8.130;2023-05-20T18:55:01;99366.66;;;17.11;49.24
55317;BME280;41178;48.956;8.130;2023-05-20T19:00:03;99347.47;;;18.11;47.54
55317;BME280;41178;48.956;8.130;2023-05-20T19:05:10;99423.00;;;17.55;49.14
55317;BME280;41178;48.956;8.130;2023-05-20T19:10:11;99443.56;;;17.56;48.70
55317;BME280;41178;48.956;8.130;2023-05-20T19:15:13;99434.06;;;17.53;48.74
55317;BME280;41178;48.956;8.130;2023-05-20T19:20:16;99404.50;;;17.23;49.06
55317;BME280;41178;48.956;8.130;2023-05-20T19:25:18;99434.66;;;17.44;48.71
55317;BME280;41178;48.956;8.130;2023-05-20T19:30:20;99450.78;;;17.27;49.40
55317;BME280;41178;48.956;8.130;2023-05-20T19:35:22;99443.59;;;16.85;49.88
55317;BME280;41178;48.956;8.130;2023-05-20T19:40:23;99461.84;;;17.37;49.19
55317;BME280;41178;48.956;8.130;2023-05-20T19:45:25;99419.53;;;17.31;48.45
55317;BME280;41178;48.956;8.130;2023-05-20T19:50:27;99467.13;;;17.32;48.94
55317;BME280;41178;48.956;8.130;2023-05-20T19:55:29;99457.38;;;17.19;48.93
55317;BME280;41178;48.956;8.130;2023-05-20T20:00:30;99446.06;;;16.63;49.90
55317;BME280;41178;48.956;8.130;2023-05-20T20:05:32;99468.34;;;17.01;49.43
55317;BME280;41178;48.956;8.130;2023-05-20T20:10:34;99485.88;;;16.68;50.08
55317;BME280;41178;48.956;8.130;2023-05-20T20:15:38;99487.97;;;16.54;50.18
55317;BME280;41178;48.956;8.130;2023-05-20T20:20:41;99475.69;;;17.41;48.71
55317;BME280;41178;48.956;8.130;2023-05-20T20:25:43;99500.50;;;17.26;49.30
55317;BME280;41178;48.956;8.130;2023-05-20T20:30:48;99475.34;;;16.36;50.40
55317;BME280;41178;48.956;8.130;2023-05-20T20:35:50;99505.78;;;16.43;50.79
55317;BME280;41178;48.956;8.130;2023-05-20T20:40:54;99489.69;;;17.14;49.64
55317;BME280;41178;48.956;8.130;2023-05-20T20:45:56;99516.72;;;17.73;49.02
55317;BME280;41178;48.956;8.130;2023-05-20T20:51:00;99466.88;;;16.02;50.77
55317;BME280;41178;48.956;8.130;2023-05-20T20:56:02;99471.00;;;15.56;52.22
55317;BME280;41178;48.956;8.130;2023-05-20T21:01:04;99496.75;;;17.03;50.31
55317;BME280;41178;48.956;8.130;2023-05-20T21:06:06;99493.53;;;16.71;50.57
55317;BME280;41178;48.956;8.130;2023-05-20T21:11:08;99498.66;;;16.49;51.02
55317;BME280;41178;48.956;8.130;2023-05-20T21:16:10;99461.66;;;15.33;53.12
55317;BME280;41178;48.956;8.130;2023-05-20T21:21:11;99498.09;;;15.79;52.14
55317;BME280;41178;48.956;8.130;2023-05-20T21:26:15;99499.94;;;15.79;52.45
55317;BME280;41178;48.956;8.130;2023-05-20T21:31:17;99503.47;;;15.98;52.33
55317;BME280;41178;48.956;8.130;2023-05-20T21:36:20;99477.28;;;15.68;52.64
55317;BME280;41178;48.956;8.130;2023-05-20T21:41:21;99501.78;;;16.15;51.87
55317;BME280;41178;48.956;8.130;2023-05-20T21:46:23;99512.25;;;15.93;52.44
55317;BME280;41178;48.956;8.130;2023-05-20T21:51:25;99503.44;;;16.35;51.95
55317;BME280;41178;48.956;8.130;2023-05-20T21:56:27;99515.56;;;16.25;52.33
55317;BME280;41178;48.956;8.130;2023-05-20T22:01:28;99494.19;;;16.24;51.82
55317;BME280;41178;48.956;8.130;2023-05-20T22:06:30;99501.97;;;15.83;52.99
55317;BME280;41178;48.956;8.130;2023-05-20T22:11:35;99521.09;;;17.15;50.40
55317;BME280;41178;48.956;8.130;2023-05-20T22:16:38;99495.00;;;16.24;51.89
55317;BME280;41178;48.956;8.130;2023-05-20T22:21:40;99511.56;;;16.47;52.21
55317;BME280;41178;48.956;8.130;2023-05-20T22:26:50;99503.59;;;16.21;52.59
55317;BME280;41178;48.956;8.130;2023-05-20T22:31:52;99481.44;;;15.45;53.42
55317;BME280;41178;48.956;8.130;2023-05-20T22:36:54;99503.34;;;15.74;53.01
55317;BME280;41178;48.956;8.130;2023-05-20T22:41:55;99512.84;;;16.25;52.50
55317;BME280;41178;48.956;8.130;2023-05-20T22:46:57;99516.66;;;15.87;53.74
55317;BME280;41178;48.956;8.130;2023-05-20T22:51:59;99475.03;;;15.65;52.98
55317;BME280;41178;48.956;8.130;2023-05-20T22:57:00;99482.47;;;15.26;54.18
55317;BME280;41178;48.956;8.130;2023-05-20T23:02:02;99513.09;;;16.54;52.04
55317;BME280;41178;48.956;8.130;2023-05-20T23:07:04;99506.03;;;17.07;50.52
55317;BME280;41178;48.956;8.130;2023-05-20T23:12:06;99498.53;;;15.76;53.55
55317;BME280;41178;48.956;8.130;2023-05-20T23:17:08;99487.66;;;16.62;51.71
55317;BME280;41178;48.956;8.130;2023-05-20T23:22:10;99480.38;;;16.74;51.23
55317;BME280;41178;48.956;8.130;2023-05-20T23:27:12;99455.72;;;15.98;52.46
55317;BME280;41178;48.956;8.130;2023-05-20T23:32:14;99438.72;;;16.28;51.92
55317;BME280;41178;48.956;8.130;2023-05-20T23:37:16;99494.66;;;17.05;51.23
55317;BME280;41178;48.956;8.130;2023-05-20T23:42:17;99488.06;;;17.13;50.82
55317;BME280;41178;48.956;8.130;2023-05-20T23:47:19;99455.81;;;15.92;53.00
55317;BME280;41178;48.956;8.130;2023-05-20T23:52:21;99481.81;;;16.89;52.04
55317;BME280;41178;48.956;8.130;2023-05-20T23:57:22;99451.56;;;15.65;53.56
